createdAt,value
2019-03-21T00:01:48.554Z,99234.22
2019-03-21T00:04:57.800Z,99235.53
2019-03-21T00:08:05.384Z,99232.50
2019-03-21T00:11:49.401Z,99237.34
2019-03-21T00:15:17.893Z,99241.72
2019-03-21T00:18:25.261Z,99238.25
2019-03-21T00:21:32.311Z,99245.20
2019-03-21T00:24:41.236Z,99245.66
2019-03-21T00:27:48.339Z,99244.38
2019-03-21T00:30:56.783Z,99247.43
2019-03-21T00:34:03.801Z,99256.48
2019-03-21T00:37:11.171Z,99254.77
2019-03-21T00:40:21.205Z,99246.58
2019-03-21T00:43:28.267Z,99246.60
2019-03-21T00:46:35.610Z,99248.31
2019-03-21T00:49:43.214Z,99254.41
2019-03-21T00:52:51.823Z,99256.17
2019-03-21T00:55:59.247Z,99244.92
2019-03-21T00:59:06.393Z,99250.59
2019-03-21T01:02:13.894Z,99246.24
2019-03-21T01:05:20.766Z,99240.58
2019-03-21T01:08:27.638Z,99244.94
2019-03-21T01:11:37.013Z,99238.50
2019-03-21T01:14:43.870Z,99245.02
2019-03-21T01:17:51.014Z,99234.59
2019-03-21T01:20:58.211Z,99235.88
2019-03-21T01:24:05.339Z,99236.79
2019-03-21T01:27:12.493Z,99235.52
2019-03-21T01:30:19.661Z,99222.50
2019-03-21T01:33:26.665Z,99219.91
2019-03-21T01:36:35.391Z,99219.42
2019-03-21T01:39:42.329Z,99210.34
2019-03-21T01:42:49.464Z,99217.66
2019-03-21T01:45:56.497Z,99202.52
2019-03-21T01:49:03.764Z,99187.78
2019-03-21T01:52:10.932Z,99192.06
2019-03-21T01:55:17.940Z,99186.05
2019-03-21T01:58:25.135Z,99181.68
2019-03-21T02:01:32.523Z,99187.77
2019-03-21T02:04:39.541Z,99185.63
2019-03-21T02:07:46.690Z,99188.25
2019-03-21T02:10:53.685Z,99191.27
2019-03-21T02:14:01.079Z,99189.09
2019-03-21T02:17:08.316Z,99185.66
2019-03-21T02:20:16.385Z,99196.42
2019-03-21T02:23:23.551Z,99192.16
2019-03-21T02:26:30.894Z,99191.77
2019-03-21T02:29:38.298Z,99193.06
2019-03-21T02:32:45.750Z,99192.20
2019-03-21T02:35:52.679Z,99189.61
2019-03-21T02:38:59.760Z,99191.30
2019-03-21T02:42:06.760Z,99195.22
2019-03-21T02:45:14.979Z,99191.80
2019-03-21T02:48:22.311Z,99189.67
2019-03-21T02:51:29.613Z,99185.37
2019-03-21T02:54:36.870Z,99189.66
2019-03-21T02:57:43.962Z,99185.27
2019-03-21T03:00:50.771Z,99176.68
2019-03-21T03:03:57.976Z,99181.88
2019-03-21T03:07:05.237Z,99178.00
2019-03-21T03:10:14.097Z,99178.89
2019-03-21T03:13:21.097Z,99176.28
2019-03-21T03:16:28.084Z,99176.28
2019-03-21T03:19:34.934Z,99178.05
2019-03-21T03:22:42.105Z,99181.08
2019-03-21T03:25:51.206Z,99187.58
2019-03-21T03:28:58.125Z,99187.16
2019-03-21T03:32:05.186Z,99191.08
2019-03-21T03:35:12.996Z,99189.80
2019-03-21T03:38:20.019Z,99192.81
2019-03-21T03:41:27.495Z,99189.77
2019-03-21T03:44:34.190Z,99183.75
2019-03-21T03:47:41.341Z,99186.34
2019-03-21T03:50:48.101Z,99181.16
2019-03-21T03:53:55.198Z,99185.07
2019-03-21T03:57:02.162Z,99176.84
2019-03-21T04:00:11.673Z,99178.59
2019-03-21T04:03:18.589Z,99183.34
2019-03-21T04:06:25.636Z,99183.36
2019-03-21T04:09:32.589Z,99187.28
2019-03-21T04:12:40.855Z,99182.49
2019-03-21T04:15:52.978Z,99182.89
2019-03-21T04:18:56.919Z,99185.05
2019-03-21T04:22:04.120Z,99181.62
2019-03-21T04:25:12.670Z,99179.03
2019-03-21T04:28:20.339Z,99179.03
2019-03-21T04:31:27.804Z,99179.88
2019-03-21T04:34:34.845Z,99180.34
2019-03-21T04:37:42.555Z,99181.66
2019-03-21T04:40:49.796Z,99187.73
2019-03-21T04:43:56.965Z,99190.74
2019-03-21T04:47:04.818Z,99186.84
2019-03-21T04:50:14.621Z,99192.39
2019-03-21T04:53:21.784Z,99187.69
2019-03-21T04:56:28.605Z,99184.68
2019-03-21T04:59:36.509Z,99186.87
2019-03-21T05:02:43.758Z,99186.40
2019-03-21T05:05:51.321Z,99186.01
2019-03-21T05:08:58.329Z,99184.72
2019-03-21T05:12:06.209Z,99187.33
2019-03-21T05:15:18.990Z,99186.45
2019-03-21T05:18:29.530Z,99184.73
2019-03-21T05:21:37.550Z,99186.88
2019-03-21T05:24:44.387Z,99191.59
2019-03-21T05:27:51.094Z,99192.95
2019-03-21T05:31:01.524Z,99188.16
2019-03-21T05:34:08.343Z,99188.60
2019-03-21T05:37:16.253Z,99195.49
2019-03-21T05:40:23.909Z,99200.26
2019-03-21T05:43:35.153Z,99204.98
2019-03-21T05:46:42.504Z,99208.00
2019-03-21T05:49:49.589Z,99210.61
2019-03-21T05:52:56.800Z,99205.39
2019-03-21T05:56:04.247Z,99214.03
2019-03-21T05:59:11.506Z,99221.34
2019-03-21T06:02:18.550Z,99222.22
2019-03-21T06:05:25.479Z,99231.23
2019-03-21T06:08:34.748Z,99232.95
2019-03-21T06:11:43.630Z,99232.09
2019-03-21T06:14:57.322Z,99238.09
2019-03-21T06:18:52.420Z,99234.13
2019-03-21T06:22:23.861Z,99230.69
2019-03-21T06:25:55.278Z,99233.67
2019-03-21T06:29:02.256Z,99228.47
2019-03-21T06:32:09.547Z,99235.29
2019-03-21T06:35:23.710Z,99238.73
2019-03-21T06:38:30.662Z,99238.23
2019-03-21T06:41:38.124Z,99238.16
2019-03-21T06:44:45.257Z,99242.38
2019-03-21T06:47:53.277Z,99237.47
2019-03-21T06:51:00.683Z,99239.24
2019-03-21T06:54:07.648Z,99243.38
2019-03-21T06:57:15.293Z,99236.56
2019-03-21T07:00:24.837Z,99241.92
2019-03-21T07:03:31.387Z,99239.97
2019-03-21T07:06:38.628Z,99237.44
2019-03-21T07:09:45.503Z,99236.08
2019-03-21T07:12:52.572Z,99228.79
2019-03-21T07:15:59.843Z,99233.95
2019-03-21T07:19:06.840Z,99227.66
2019-03-21T07:22:13.720Z,99225.20
2019-03-21T07:25:21.111Z,99239.95
2019-03-21T07:28:28.054Z,99229.12
2019-03-21T07:31:35.908Z,99234.67
2019-03-21T07:34:43.849Z,99230.36
2019-03-21T07:37:50.862Z,99224.26
2019-03-21T07:40:57.963Z,99232.00
2019-03-21T07:44:04.651Z,99232.72
2019-03-21T07:47:13.326Z,99234.52
2019-03-21T07:50:22.332Z,99233.84
2019-03-21T07:53:29.630Z,99234.57
2019-03-21T07:56:36.946Z,99237.31
2019-03-21T07:59:43.896Z,99238.06
2019-03-21T08:02:50.870Z,99233.69
2019-03-21T08:05:58.179Z,99238.61
2019-03-21T08:09:07.480Z,99226.88
2019-03-21T08:12:15.272Z,99230.05
2019-03-21T08:15:22.103Z,99224.86
2019-03-21T08:18:29.108Z,99218.80
2019-03-21T08:21:36.534Z,99215.86
2019-03-21T08:24:43.494Z,99211.23
2019-03-21T08:27:51.871Z,99216.12
2019-03-21T08:31:33.136Z,99217.55
2019-03-21T08:34:40.731Z,99218.36
2019-03-21T08:37:48.004Z,99220.34
2019-03-21T08:40:56.559Z,99213.12
2019-03-21T08:44:06.323Z,99217.50
2019-03-21T08:47:14.264Z,99217.12
2019-03-21T08:50:21.665Z,99214.67
2019-03-21T08:53:28.832Z,99217.55
2019-03-21T08:56:36.735Z,99207.65
2019-03-21T08:59:44.482Z,99210.42
2019-03-21T09:02:54.221Z,99212.20
2019-03-21T09:06:01.609Z,99207.97
2019-03-21T09:09:10.025Z,99200.63
2019-03-21T09:12:18.256Z,99199.77
2019-03-21T09:15:25.298Z,99199.96
2019-03-21T09:18:32.506Z,99203.66
2019-03-21T09:21:40.077Z,99200.44
2019-03-21T09:24:47.609Z,99201.26
2019-03-21T09:28:02.571Z,99200.98
2019-03-21T09:31:03.569Z,99192.22
2019-03-21T09:34:10.609Z,99194.34
2019-03-21T09:37:18.114Z,99189.50
2019-03-21T09:40:25.711Z,99191.31
2019-03-21T09:43:33.060Z,99187.77
2019-03-21T09:46:50.434Z,99182.59
2019-03-21T09:49:48.917Z,99187.34
2019-03-21T09:52:56.120Z,99185.69
2019-03-21T09:56:03.146Z,99187.52
2019-03-21T09:59:10.326Z,99188.02
2019-03-21T10:02:17.246Z,99180.23
2019-03-21T10:05:24.257Z,99184.11
2019-03-21T10:08:31.870Z,99181.05
2019-03-21T10:11:39.532Z,99179.23
2019-03-21T10:14:48.362Z,99175.23
2019-03-21T10:17:55.716Z,99173.66
2019-03-21T10:21:03.248Z,99170.66
2019-03-21T10:24:10.739Z,99176.67
2019-03-21T10:27:17.847Z,99177.13
2019-03-21T10:30:41.302Z,99167.53
2019-03-21T10:33:48.637Z,99164.20
2019-03-21T10:37:01.381Z,99156.72
2019-03-21T10:40:08.898Z,99162.97
2019-03-21T10:43:18.889Z,99160.87
2019-03-21T10:46:25.982Z,99163.16
2019-03-21T10:49:32.968Z,99155.05
2019-03-21T10:52:40.204Z,99152.67
2019-03-21T10:55:47.912Z,99154.06
2019-03-21T10:58:55.097Z,99150.16
2019-03-21T11:02:07.579Z,99150.48
2019-03-21T11:05:12.121Z,99150.91
2019-03-21T11:08:22.089Z,99151.69
2019-03-21T11:11:29.571Z,99143.59
2019-03-21T11:14:36.868Z,99143.26
2019-03-21T11:17:44.437Z,99138.33
2019-03-21T11:20:51.860Z,99140.48
2019-03-21T11:23:58.981Z,99143.39
2019-03-21T11:27:06.187Z,99139.48
2019-03-21T11:30:16.898Z,99131.51
2019-03-21T11:33:23.999Z,99125.96
2019-03-21T11:36:38.153Z,99120.08
2019-03-21T11:39:40.184Z,99119.16
2019-03-21T11:42:47.230Z,99116.18
2019-03-21T11:45:55.386Z,99116.81
2019-03-21T11:49:02.752Z,99114.19
2019-03-21T11:52:18.244Z,99110.58
2019-03-21T11:55:19.193Z,99108.09
2019-03-21T11:58:26.694Z,99103.25
2019-03-21T12:01:35.114Z,99093.91
2019-03-21T12:04:41.968Z,99091.16
2019-03-21T12:07:49.177Z,99092.31
2019-03-21T12:10:56.595Z,99079.70
2019-03-21T12:14:03.733Z,99077.23
2019-03-21T12:17:12.834Z,99070.48
2019-03-21T12:20:39.152Z,99067.52
2019-03-21T12:23:46.790Z,99065.02
2019-03-21T12:26:54.471Z,99061.84
2019-03-21T12:30:01.532Z,99053.28
2019-03-21T12:33:08.686Z,99053.59
2019-03-21T12:36:18.650Z,99053.73
2019-03-21T12:39:25.555Z,99043.86
2019-03-21T12:42:32.728Z,99039.65
2019-03-21T12:45:39.662Z,99042.75
2019-03-21T12:48:47.105Z,99041.30
2019-03-21T12:51:54.176Z,99032.82
2019-03-21T12:55:01.551Z,99037.41
2019-03-21T12:58:08.850Z,99037.98
2019-03-21T13:01:16.505Z,99036.23
2019-03-21T13:04:24.174Z,99041.82
2019-03-21T13:07:31.374Z,99032.98
2019-03-21T13:10:39.422Z,99032.29
2019-03-21T13:13:47.157Z,99024.92
2019-03-21T13:16:54.264Z,99023.41
2019-03-21T13:20:01.161Z,99017.81
2019-03-21T13:23:08.712Z,99019.78
2019-03-21T13:26:18.914Z,99010.33
2019-03-21T13:29:26.055Z,99007.99
2019-03-21T13:32:33.293Z,99006.69
2019-03-21T13:35:40.894Z,98995.42
2019-03-21T13:38:48.128Z,98998.99
2019-03-21T13:41:55.198Z,98997.30
2019-03-21T13:45:02.551Z,99000.22
2019-03-21T13:48:09.380Z,98993.30
2019-03-21T13:51:16.782Z,98987.67
2019-03-21T13:54:24.258Z,98985.09
2019-03-21T13:57:31.755Z,98977.46
2019-03-21T14:00:40.972Z,98974.53
2019-03-21T14:03:47.560Z,98968.72
2019-03-21T14:06:54.643Z,98958.31
2019-03-21T14:10:02.075Z,98956.75
2019-03-21T14:13:09.091Z,98959.66
2019-03-21T14:16:16.257Z,98961.49
2019-03-21T14:19:23.303Z,98954.21
2019-03-21T14:22:30.415Z,98958.20
2019-03-21T14:25:37.742Z,98946.45
2019-03-21T14:28:45.197Z,98944.75
2019-03-21T14:31:52.153Z,98938.31
2019-03-21T14:34:59.604Z,98933.82
2019-03-21T14:38:07.275Z,98934.69
2019-03-21T14:41:14.447Z,98931.88
2019-03-21T14:44:21.553Z,98931.16
2019-03-21T14:47:36.070Z,98926.66
2019-03-21T14:50:38.428Z,98930.04
2019-03-21T14:53:45.924Z,98933.82
2019-03-21T14:56:53.170Z,98930.31
2019-03-21T15:00:00.658Z,98930.30
2019-03-21T15:03:07.779Z,98927.48
2019-03-21T15:06:16.438Z,98921.19
2019-03-21T15:09:23.438Z,98917.67
2019-03-21T15:12:31.334Z,98915.87
2019-03-21T15:15:38.030Z,98917.20
2019-03-21T15:18:45.172Z,98918.52
2019-03-21T15:21:52.131Z,98915.11
2019-03-21T15:24:59.366Z,98912.81
2019-03-21T15:28:06.393Z,98912.44
2019-03-21T15:31:14.651Z,98914.77
2019-03-21T15:34:22.888Z,98913.42
2019-03-21T15:37:30.135Z,98915.73
2019-03-21T15:40:37.539Z,98912.54
2019-03-21T15:43:46.821Z,98912.54
2019-03-21T15:46:54.361Z,98907.67
2019-03-21T15:50:01.792Z,98910.58
2019-03-21T15:53:09.832Z,98901.95
2019-03-21T15:56:16.832Z,98903.44
2019-03-21T15:59:24.390Z,98900.05
2019-03-21T16:02:32.287Z,98905.93
2019-03-21T16:05:40.028Z,98903.75
2019-03-21T16:08:47.178Z,98904.84
2019-03-21T16:11:54.587Z,98907.33
2019-03-21T16:15:01.809Z,98908.58
2019-03-21T16:18:09.146Z,98909.03
2019-03-21T16:21:16.482Z,98910.29
2019-03-21T16:24:23.617Z,98915.18
2019-03-21T16:27:31.134Z,98911.41
2019-03-21T16:30:38.083Z,98910.52
2019-03-21T16:33:46.449Z,98905.15
2019-03-21T16:36:54.142Z,98898.22
2019-03-21T16:40:01.106Z,98900.08
2019-03-21T16:43:08.379Z,98908.66
2019-03-21T16:46:15.677Z,98902.85
2019-03-21T16:49:23.284Z,98907.64
2019-03-21T16:52:30.235Z,98913.52
2019-03-21T16:55:38.077Z,98914.50
2019-03-21T16:58:45.769Z,98916.93
2019-03-21T17:01:52.977Z,98917.41
2019-03-21T17:05:00.609Z,98919.43
2019-03-21T17:08:11.522Z,98924.41
2019-03-21T17:11:17.112Z,98921.66
2019-03-21T17:14:24.119Z,98926.35
2019-03-21T17:17:31.236Z,98924.06
2019-03-21T17:20:38.574Z,98933.67
2019-03-21T17:23:45.582Z,98935.82
2019-03-21T17:26:52.948Z,98943.16
2019-03-21T17:30:00.442Z,98937.44
2019-03-21T17:33:07.926Z,98943.52
2019-03-21T17:36:14.901Z,98950.56
2019-03-21T17:39:23.777Z,98951.20
2019-03-21T17:42:31.168Z,98954.72
2019-03-21T17:45:38.780Z,98959.33
2019-03-21T17:48:46.194Z,98959.98
2019-03-21T17:51:53.406Z,98966.27
2019-03-21T17:55:00.593Z,98972.39
2019-03-21T17:58:07.996Z,98971.70
2019-03-21T18:01:15.621Z,98979.33
2019-03-21T18:04:22.707Z,98980.78
2019-03-21T18:07:30.139Z,98985.16
2019-03-21T18:10:38.241Z,98991.20
2019-03-21T18:13:46.221Z,98994.96
2019-03-21T18:16:54.002Z,98996.17
2019-03-21T18:20:01.110Z,98996.45
2019-03-21T18:23:08.642Z,99007.38
2019-03-21T18:26:16.288Z,99009.55
2019-03-21T18:29:23.756Z,99009.07
2019-03-21T18:32:31.027Z,99007.92
2019-03-21T18:35:39.137Z,99006.34
2019-03-21T18:38:57.486Z,99003.31
2019-03-21T18:41:56.763Z,99010.17
2019-03-21T18:45:03.655Z,99014.83
2019-03-21T18:48:12.129Z,99019.97
2019-03-21T18:51:19.862Z,99022.64
2019-03-21T18:54:27.172Z,99027.02
2019-03-21T18:57:34.170Z,99028.85
2019-03-21T19:00:41.222Z,99030.88
2019-03-21T19:03:48.562Z,99027.86
2019-03-21T19:06:55.839Z,99028.32
2019-03-21T19:10:04.336Z,99028.37
2019-03-21T19:13:11.842Z,99034.48
2019-03-21T19:16:19.451Z,99040.20
2019-03-21T19:19:26.992Z,99045.02
2019-03-21T19:22:34.369Z,99043.13
2019-03-21T19:25:41.926Z,99041.16
2019-03-21T19:28:50.669Z,99038.73
2019-03-21T19:31:58.529Z,99042.31
2019-03-21T19:35:06.936Z,99039.23
2019-03-21T19:38:15.890Z,99046.30
2019-03-21T19:41:24.732Z,99040.53
2019-03-21T19:44:32.455Z,99041.22
2019-03-21T19:47:39.849Z,99045.08
2019-03-21T19:50:47.154Z,99040.48
2019-03-21T19:53:55.673Z,99042.28
2019-03-21T19:57:03.407Z,99039.88
2019-03-21T20:00:15.785Z,99044.03
2019-03-21T20:03:22.970Z,99043.27
2019-03-21T20:06:30.183Z,99041.96
2019-03-21T20:09:37.341Z,99046.66
2019-03-21T20:12:45.302Z,99042.45
2019-03-21T20:15:52.432Z,99043.25
2019-03-21T20:18:59.948Z,99044.66
2019-03-21T20:22:07.175Z,99039.89
2019-03-21T20:25:18.222Z,99043.73
2019-03-21T20:28:25.967Z,99040.05
2019-03-21T20:31:33.431Z,99037.33
2019-03-21T20:34:42.007Z,99041.56
2019-03-21T20:37:49.578Z,99041.27
2019-03-21T20:40:56.514Z,99039.52
2019-03-21T20:44:14.712Z,99041.41
2019-03-21T20:47:14.303Z,99041.77
2019-03-21T20:50:21.810Z,99038.24
2019-03-21T20:53:29.368Z,99040.09
2019-03-21T20:56:37.755Z,99039.89
2019-03-21T20:59:45.369Z,99039.20
2019-03-21T21:02:53.026Z,99034.05
2019-03-21T21:06:01.689Z,99030.80
2019-03-21T21:09:09.696Z,99027.59
2019-03-21T21:12:17.423Z,99037.15
2019-03-21T21:15:24.576Z,99036.20
2019-03-21T21:18:31.928Z,99031.83
2019-03-21T21:21:39.200Z,99032.52
2019-03-21T21:24:46.302Z,99030.75
2019-03-21T21:27:53.397Z,99036.58
2019-03-21T21:31:00.636Z,99032.66
2019-03-21T21:34:07.934Z,99038.59
2019-03-21T21:37:15.187Z,99044.28
2019-03-21T21:40:22.549Z,99046.36
2019-03-21T21:43:29.435Z,99046.52
2019-03-21T21:46:37.182Z,99047.65
2019-03-21T21:49:44.716Z,99051.27
2019-03-21T21:52:51.978Z,99050.03
2019-03-21T21:55:59.074Z,99043.19
2019-03-21T21:59:05.998Z,99045.18
2019-03-21T22:02:13.308Z,99043.70
2019-03-21T22:05:20.832Z,99045.80
2019-03-21T22:08:27.845Z,99042.81
2019-03-21T22:11:35.547Z,99041.69
2019-03-21T22:14:43.036Z,99047.65
2019-03-21T22:17:50.275Z,99052.95
2019-03-21T22:20:57.481Z,99047.08
2019-03-21T22:24:08.203Z,99047.19
2019-03-21T22:27:15.543Z,99051.06
2019-03-21T22:30:22.994Z,99049.36
2019-03-21T22:33:30.650Z,99046.53
2019-03-21T22:36:48.826Z,99046.03
2019-03-21T22:39:47.739Z,99039.84
2019-03-21T22:42:54.671Z,99046.93
2019-03-21T22:46:01.657Z,99044.17
2019-03-21T22:49:08.782Z,99040.78
2019-03-21T22:52:16.016Z,99041.74
2019-03-21T22:55:23.292Z,99040.20
2019-03-21T22:58:31.888Z,99035.95
2019-03-21T23:01:39.723Z,99033.16
2019-03-21T23:05:39.321Z,99021.95
2019-03-21T23:17:44.522Z,99028.19
2019-03-21T23:20:51.143Z,99025.52
2019-03-21T23:23:57.853Z,99028.19
2019-03-21T23:27:05.110Z,99025.36
2019-03-21T23:30:12.732Z,99023.30
2019-03-21T23:33:20.387Z,99031.30
2019-03-21T23:36:27.409Z,99031.81
2019-03-21T23:39:34.720Z,99031.02
2019-03-21T23:42:41.534Z,99037.83
2019-03-21T23:45:48.368Z,99042.82
2019-03-21T23:48:55.146Z,99040.31
2019-03-21T23:52:01.696Z,99040.42
2019-03-21T23:55:09.239Z,99040.87
2019-03-21T23:58:15.882Z,99043.54
